< Typhoon 196712 1967 Season Typhoon 196714 >
Typhoon 196713 (GEORGIA)
General InformationTrack Information on Google Maps || Disaster Info.ResourceGoogle EarthGE AnimationAtom FeedGeoJSON
Detalied Best Track (Time Zone = UTC)
Year Month Day Hour Lat. Long. Pressure (hPa) Wind (kt) Class Image Chart
1967 7 28 12 17.0 136.0 996 0 2 -- Chart
1967 7 28 18 17.0 135.0 996 0 2 -- Chart
1967 7 29 00 17.1 134.3 996 0 2 -- Chart
1967 7 29 06 17.3 133.7 994 0 2 -- Chart
1967 7 29 12 18.0 133.4 994 0 2 -- Chart
1967 7 29 18 19.1 133.6 994 0 2 -- Chart
1967 7 30 00 20.0 134.6 994 0 2 -- Chart
1967 7 30 06 20.4 135.2 994 0 2 -- Chart
1967 7 30 12 21.2 135.6 994 0 2 -- Chart
1967 7 30 18 22.0 135.7 992 0 2 -- Chart
1967 7 31 00 22.9 136.6 990 0 9 -- Chart
1967 7 31 06 21.9 137.1 988 0 9 -- Chart
1967 7 31 12 22.5 136.8 988 0 9 -- Chart
1967 7 31 18 22.7 137.9 988 0 9 -- Chart
1967 8 1 00 22.5 138.4 985 0 9 -- Chart
1967 8 1 06 23.0 139.2 983 0 9 -- Chart
1967 8 1 12 23.2 139.8 982 0 9 -- Chart
1967 8 1 18 24.0 140.8 982 0 9 -- Chart
1967 8 2 00 25.3 142.0 980 0 9 -- Chart
1967 8 2 06 26.1 143.0 982 0 9 -- Chart
1967 8 2 12 27.5 144.3 985 0 9 -- Chart
1967 8 2 18 28.8 145.8 985 0 9 -- Chart
1967 8 3 00 29.6 146.8 985 0 9 -- Chart
1967 8 3 06 30.3 148.0 985 0 9 -- Chart
1967 8 3 12 30.7 148.9 985 0 9 -- Chart
1967 8 3 18 31.1 150.0 988 0 9 -- Chart
1967 8 4 00 31.8 151.1 988 0 9 -- Chart
1967 8 4 06 32.7 152.3 988 0 9 -- Chart
1967 8 4 12 33.4 152.4 988 0 9 -- Chart
1967 8 4 18 34.1 152.2 990 0 9 -- Chart
1967 8 5 00 34.8 151.6 990 0 9 -- Chart
1967 8 5 06 35.3 150.9 986 0 9 -- Chart
1967 8 5 12 35.5 150.3 984 0 9 -- Chart
1967 8 5 18 35.6 150.0 984 0 9 -- Chart
1967 8 6 00 36.0 150.0 980 0 9 -- Chart
1967 8 6 06 36.5 149.9 980 0 9 -- Chart
1967 8 6 12 37.2 149.9 976 0 9 -- Chart
1967 8 6 18 37.9 150.0 978 0 9 -- Chart
1967 8 7 00 38.6 150.3 978 0 9 -- Chart
1967 8 7 06 39.5 150.8 975 0 9 -- Chart
1967 8 7 12 40.3 151.2 975 0 9 -- Chart
1967 8 7 18 41.4 151.9 976 0 9 -- Chart
1967 8 8 00 42.7 152.5 978 0 9 -- Chart
1967 8 8 06 44.0 153.0 986 0 6 -- Chart
1967 8 8 12 45.5 154.0 988 0 6 -- Chart
1967 8 8 18 47.1 155.0 990 0 6 -- Chart
1967 8 9 00 48.5 156.2 990 0 6 -- Chart
1967 8 9 06 49.5 156.8 988 0 6 -- Chart
1967 8 9 12 50.3 157.2 990 0 6 -- Chart
1967 8 9 18 51.0 157.8 990 0 6 -- Chart
1967 8 10 00 51.6 158.5 990 0 6 -- Chart
1967 8 10 06 52.0 159.0 990 0 6 -- Chart
1967 8 10 12 52.4 159.5 990 0 6 -- Chart
1967 8 10 18 53.0 160.1 990 0 6 -- Chart
1967 8 11 00 53.4 161.1 988 0 6 -- Chart
1967 8 11 06 53.7 162.5 988 0 6 -- Chart
1967 8 11 12 54.2 164.0 986 0 6 -- Chart
1967 8 11 18 55.0 166.0 984 0 6 -- Chart
1967 8 12 00 55.5 167.6 982 0 6 -- Chart
1967 8 12 06 56.0 169.2 982 0 6 -- Chart
1967 8 12 12 56.5 171.4 988 0 6 -- Chart
1967 8 12 18 57.1 173.4 992 0 6 -- Chart
1967 8 13 00 58.0 174.1 996 0 6 -- Chart
1967 8 13 06 58.7 178.2 1000 0 6 -- Chart
1967 8 13 12 59.5 182.0 1002 0 6 -- Chart
Japan Meteorological Agency Best Track Data | Correction Date : 1991-07-16
< Typhoon 196712 1967 Season Typhoon 196714 >

Help